Terminal Aerodrome Forecast
Issued by NWS

Home | Current Version | Previous Version | Text Only | Print | Product List | Glossary On
Versions: 1 2 3 4 5 6 7 8 9 10 11 12 13
126
FTUS45 KABQ 261134
TAFSAF
TAF
KSAF 261134Z 2612/2712 13010KT P6SM OVC035
      TEMPO 2612/2615 P6SM OVC025
     FM261500 14015G25KT P6SM BKN035
     FM270000 13018G28KT P6SM VCSH BKN040
     FM270600 14013G20KT P6SM VCSH OVC040=

USA.gov is the U.S. government's official web portal to all federal, state and local government web resources and services.